Time;durP1;ratioP1;P1;durP2;ratioP2;P2;SDS_P1;SDS_P2;PMS_P1;PMS_P2;Temp;Humidity;BMP_temperature;BMP_pressure;BME280_temperature;BME280_humidity;BME280_pressure;Samples;Min_cycle;Max_cycle;Signal;HPM_P1;HPM_P2
2021/10/22 03:21:37;;;;;;;13.37;8.03;;;;;;;;;;5573858;23;20024;31
2021/10/22 03:24:03;;;;;;;12.27;8.40;;;;;;;;;;4824078;29;20299;-62
2021/10/22 03:26:30;;;;;;;13.07;7.93;;;;;;;;;;4824192;29;20045;-64
2021/10/22 03:28:56;;;;;;;13.95;8.48;;;;;;;;;;4824186;29;20065;-62
2021/10/22 03:31:22;;;;;;;14.23;8.13;;;;;;;;;;4823504;29;20410;-62
2021/10/22 03:33:48;;;;;;;12.38;7.88;;;;;;;;;;4807798;29;20552;-63
2021/10/22 03:36:14;;;;;;;16.23;9.20;;;;;;;;;;4807761;29;20069;-62
2021/10/22 03:38:40;;;;;;;17.02;8.15;;;;;;;;;;4823942;29;20027;-62
2021/10/22 03:41:07;;;;;;;16.65;9.02;;;;;;;;;;4824050;29;20042;-63
2021/10/22 03:43:34;;;;;;;14.75;9.15;;;;;;;;;;4824256;29;20038;-62
2021/10/22 03:46:00;;;;;;;14.63;8.73;;;;;;;;;;4823785;29;20062;-62
2021/10/22 03:48:26;;;;;;;13.57;9.07;;;;;;;;;;4823990;29;20033;-64
2021/10/22 03:50:53;;;;;;;16.80;8.50;;;;;;;;;;4823868;29;20073;-65
2021/10/22 03:53:19;;;;;;;14.43;8.65;;;;;;;;;;4807136;29;20074;-62
2021/10/22 03:55:45;;;;;;;14.43;7.97;;;;;;;;;;4823945;29;20027;-64
2021/10/22 03:58:12;;;;;;;16.90;8.48;;;;;;;;;;4823761;29;20042;-64
2021/10/22 04:00:38;;;;;;;16.33;8.43;;;;;;;;;;4823730;29;20033;-65
2021/10/22 04:03:05;;;;;;;12.90;8.65;;;;;;;;;;4806837;29;20049;-63
2021/10/22 04:05:32;;;;;;;14.07;8.30;;;;;;;;;;4823712;29;20365;-66
2021/10/22 04:07:58;;;;;;;12.88;8.52;;;;;;;;;;4823591;29;20090;-61
2021/10/22 04:10:24;;;;;;;15.63;8.50;;;;;;;;;;4823512;29;20037;-64
2021/10/22 04:12:51;;;;;;;14.73;8.40;;;;;;;;;;4823518;29;20031;-64
2021/10/22 04:15:17;;;;;;;16.98;9.95;;;;;;;;;;4806779;29;20035;-61
2021/10/22 04:17:43;;;;;;;16.80;10.27;;;;;;;;;;4823272;29;20026;-64
2021/10/22 04:20:10;;;;;;;15.57;9.43;;;;;;;;;;4823368;29;20034;-62
2021/10/22 04:22:36;;;;;;;14.93;8.80;;;;;;;;;;4836090;29;20116;-62
2021/10/22 04:25:03;;;;;;;15.75;9.60;;;;;;;;;;4860070;29;20034;-61
2021/10/22 04:27:32;;;;;;;14.30;8.90;;;;;;;;;;4859872;29;20454;-62
2021/10/22 04:30:00;;;;;;;18.13;9.43;;;;;;;;;;4859815;29;20068;-63
2021/10/22 04:32:26;;;;;;;19.88;10.55;;;;;;;;;;4859562;29;20045;-62
2021/10/22 04:34:52;;;;;;;16.73;9.93;;;;;;;;;;4859270;29;20065;-62
2021/10/22 04:43:03;;;;;;;21.73;12.50;;;;;;;;;;4801942;29;20534;-62
2021/10/22 04:45:30;;;;;;;20.65;12.00;;;;;;;;;;4802035;29;20047;-63
2021/10/22 04:47:56;;;;;;;18.42;12.30;;;;;;;;;;4801973;29;20070;-62
2021/10/22 04:50:23;;;;;;;21.58;11.30;;;;;;;;;;4802020;29;20065;-61
2021/10/22 04:52:55;;;;;;;22.45;13.32;;;;;;;;;;4802001;29;20114;-62
2021/10/22 04:55:22;;;;;;;29.50;16.50;;;;;;;;;;4802137;29;20042;-63
2021/10/22 04:57:48;;;;;;;27.45;17.30;;;;;;;;;;4801753;29;20401;-64
2021/10/22 05:00:14;;;;;;;31.85;18.08;;;;;;;;;;4801921;29;20104;-62
2021/10/22 05:02:40;;;;;;;28.58;17.00;;;;;;;;;;4801743;29;20534;-63
2021/10/22 05:05:06;;;;;;;28.75;17.42;;;;;;;;;;4801935;29;20780;-63
2021/10/22 05:07:33;;;;;;;29.55;17.02;;;;;;;;;;4801861;29;20449;-64
2021/10/22 05:09:59;;;;;;;28.50;18.52;;;;;;;;;;4801946;29;20059;-64
2021/10/22 05:12:25;;;;;;;27.70;17.92;;;;;;;;;;4801869;29;20500;-66
2021/10/22 05:14:51;;;;;;;32.25;19.33;;;;;;;;;;4801895;29;20046;-64
2021/10/22 05:17:18;;;;;;;33.92;19.48;;;;;;;;;;4846002;29;20056;-62
2021/10/22 05:19:44;;;;;;;31.25;18.27;;;;;;;;;;4859046;29;20021;-62
2021/10/22 05:22:10;;;;;;;33.55;18.92;;;;;;;;;;4858734;29;20037;-62
2021/10/22 05:24:36;;;;;;;35.50;20.88;;;;;;;;;;4858933;29;20053;-63
2021/10/22 05:27:03;;;;;;;34.55;21.15;;;;;;;;;;4852684;29;20101;-61
2021/10/22 05:29:29;;;;;;;35.53;21.48;;;;;;;;;;4858079;29;20154;-61
2021/10/22 05:31:55;;;;;;;33.13;20.17;;;;;;;;;;4857532;29;20049;-61
2021/10/22 05:34:21;;;;;;;32.70;20.80;;;;;;;;;;4857349;29;20466;-61
2021/10/22 05:36:50;;;;;;;34.42;20.60;;;;;;;;;;4840249;29;20037;-62
2021/10/22 05:39:19;;;;;;;40.63;24.90;;;;;;;;;;4857483;29;20052;-68
2021/10/22 05:41:46;;;;;;;36.10;24.42;;;;;;;;;;4857155;29;20044;-62
2021/10/22 05:44:12;;;;;;;31.50;19.23;;;;;;;;;;4857831;29;20033;-61
2021/10/22 05:46:38;;;;;;;30.92;19.13;;;;;;;;;;4858458;29;20033;-61
2021/10/22 05:49:04;;;;;;;27.48;18.25;;;;;;;;;;4857706;29;20025;-62
2021/10/22 05:51:30;;;;;;;28.75;17.17;;;;;;;;;;4841108;29;20068;-62
2021/10/22 05:53:57;;;;;;;33.60;18.35;;;;;;;;;;4860838;29;20030;-61
2021/10/22 05:56:23;;;;;;;27.77;16.40;;;;;;;;;;4845191;29;20468;-61
2021/10/22 05:58:49;;;;;;;27.20;17.17;;;;;;;;;;4862214;29;20033;-61
2021/10/22 06:01:15;;;;;;;26.52;16.70;;;;;;;;;;4845656;29;20479;-61
2021/10/22 06:03:41;;;;;;;28.42;16.90;;;;;;;;;;4865680;29;20033;-61
2021/10/22 06:06:07;;;;;;;28.35;17.27;;;;;;;;;;4869436;29;20470;-61
2021/10/22 06:08:33;;;;;;;27.98;16.92;;;;;;;;;;4844749;29;20030;-61
2021/10/22 06:10:59;;;;;;;30.30;17.77;;;;;;;;;;4870658;29;20076;-62
2021/10/22 06:13:25;;;;;;;33.38;18.63;;;;;;;;;;4870384;29;20037;-59
2021/10/22 06:15:51;;;;;;;26.25;17.48;;;;;;;;;;4869020;29;20120;-60
2021/10/22 06:18:19;;;;;;;32.35;18.02;;;;;;;;;;4861447;29;20036;-60
2021/10/22 06:20:52;;;;;;;30.75;17.88;;;;;;;;;;4860840;29;20030;-63
2021/10/22 06:26:03;;;;;;;31.27;18.52;;;;;;;;;;4860435;29;20045;-58
2021/10/22 06:28:30;;;;;;;30.27;18.67;;;;;;;;;;4861043;29;20106;-61
2021/10/22 06:30:57;;;;;;;38.35;20.02;;;;;;;;;;4861653;29;20045;-61
2021/10/22 06:33:24;;;;;;;35.97;19.17;;;;;;;;;;4861145;29;20057;-59
2021/10/22 06:35:50;;;;;;;38.10;22.65;;;;;;;;;;4866053;29;20104;-60
2021/10/22 06:38:16;;;;;;;34.70;21.55;;;;;;;;;;4870210;29;20032;-62
2021/10/22 06:40:42;;;;;;;34.10;18.13;;;;;;;;;;4866479;29;20037;-61
2021/10/22 06:43:09;;;;;;;28.83;17.13;;;;;;;;;;4876840;29;20041;-60
2021/10/22 06:45:35;;;;;;;30.25;17.00;;;;;;;;;;4868774;29;20036;-61
2021/10/22 06:48:01;;;;;;;30.92;17.40;;;;;;;;;;4862312;29;20041;-60
2021/10/22 06:50:27;;;;;;;27.60;17.08;;;;;;;;;;4869463;29;20057;-61
2021/10/22 06:52:54;;;;;;;25.20;15.77;;;;;;;;;;4868411;29;20052;-62
2021/10/22 06:55:20;;;;;;;27.40;16.88;;;;;;;;;;4870038;29;20025;-61
2021/10/22 06:57:46;;;;;;;27.23;15.85;;;;;;;;;;4869280;29;20865;-61
2021/10/22 07:00:12;;;;;;;28.42;16.80;;;;;;;;;;4869451;29;20089;-62
2021/10/22 07:02:47;;;;;;;26.58;16.98;;;;;;;;;;4866400;29;20037;-60
2021/10/22 07:05:25;;;;;;;28.13;17.33;;;;;;;;;;4869651;29;20033;-62
2021/10/22 07:07:51;;;;;;;26.05;17.20;;;;;;;;;;4869726;29;20113;-60
2021/10/22 07:10:17;;;;;;;35.58;17.95;;;;;;;;;;4868168;29;20447;-59
2021/10/22 07:12:43;;;;;;;30.70;17.48;;;;;;;;;;4869317;29;20037;-61
2021/10/22 07:15:10;;;;;;;29.05;17.20;;;;;;;;;;4863262;29;20038;-62
2021/10/22 07:17:36;;;;;;;30.55;17.95;;;;;;;;;;4868659;29;20033;-62
2021/10/22 07:20:02;;;;;;;29.27;17.88;;;;;;;;;;4851828;29;20064;-61
2021/10/22 07:22:32;;;;;;;30.55;18.30;;;;;;;;;;4869197;29;20498;-61
2021/10/22 07:24:59;;;;;;;27.00;17.85;;;;;;;;;;4864748;29;20497;-60
2021/10/22 07:27:25;;;;;;;26.13;17.80;;;;;;;;;;4868821;29;20033;-61
2021/10/22 07:29:51;;;;;;;28.80;18.00;;;;;;;;;;4867646;29;20025;-61
2021/10/22 07:32:18;;;;;;;29.00;17.65;;;;;;;;;;4867896;29;20104;-61
2021/10/22 07:34:44;;;;;;;27.48;17.75;;;;;;;;;;4862530;29;20024;-63
2021/10/22 07:37:10;;;;;;;26.20;17.92;;;;;;;;;;4864416;29;20022;-61
2021/10/22 07:39:37;;;;;;;31.10;17.92;;;;;;;;;;4849649;29;20029;-65
2021/10/22 07:42:03;;;;;;;34.53;18.55;;;;;;;;;;4865128;29;20032;-66
2021/10/22 07:44:30;;;;;;;30.50;18.05;;;;;;;;;;4861638;29;20071;-65
2021/10/22 07:46:57;;;;;;;32.88;19.42;;;;;;;;;;4867776;29;20037;-63
2021/10/22 07:49:23;;;;;;;33.95;19.77;;;;;;;;;;4869284;29;20041;-61
2021/10/22 07:51:50;;;;;;;30.13;18.83;;;;;;;;;;4867779;29;20040;-62
2021/10/22 07:54:16;;;;;;;27.73;16.63;;;;;;;;;;4861016;29;20049;-62
2021/10/22 07:56:44;;;;;;;26.65;16.63;;;;;;;;;;4869788;29;20030;-61
2021/10/22 07:59:13;;;;;;;17.15;10.35;;;;;;;;;;4868342;29;20487;-62
2021/10/22 08:01:39;;;;;;;19.70;11.82;;;;;;;;;;4867236;29;20442;-61
2021/10/22 08:04:06;;;;;;;19.45;11.13;;;;;;;;;;4867611;29;20104;-63
2021/10/22 08:06:32;;;;;;;17.50;10.50;;;;;;;;;;4869790;29;20033;-61
2021/10/22 08:08:58;;;;;;;19.13;9.20;;;;;;;;;;4867944;29;20439;-61
2021/10/22 08:11:24;;;;;;;17.95;8.93;;;;;;;;;;4867582;29;20033;-62
2021/10/22 08:13:51;;;;;;;14.27;8.40;;;;;;;;;;4867431;29;20057;-65
2021/10/22 08:16:17;;;;;;;16.77;8.77;;;;;;;;;;4867370;29;20478;-62
2021/10/22 08:18:43;;;;;;;19.00;8.90;;;;;;;;;;4867615;29;20013;-61
2021/10/22 08:21:19;;;;;;;16.65;7.75;;;;;;;;;;4868916;29;20073;-62
2021/10/22 08:23:46;;;;;;;16.65;7.88;;;;;;;;;;4868542;29;20041;-62
2021/10/22 08:26:13;;;;;;;15.73;6.95;;;;;;;;;;4866670;29;20060;-63
2021/10/22 08:28:39;;;;;;;12.27;7.72;;;;;;;;;;4865950;29;20018;-64
2021/10/22 08:31:06;;;;;;;14.38;8.07;;;;;;;;;;4859531;29;20038;-62
2021/10/22 08:33:32;;;;;;;14.90;8.43;;;;;;;;;;4852587;29;20037;-61
2021/10/22 08:35:59;;;;;;;17.55;9.02;;;;;;;;;;4849006;29;20174;-65
2021/10/22 08:38:26;;;;;;;16.85;9.10;;;;;;;;;;4841082;29;20395;-67
2021/10/22 08:40:56;;;;;;;13.93;8.25;;;;;;;;;;4840979;29;20036;-60
2021/10/22 08:43:25;;;;;;;15.05;8.15;;;;;;;;;;4840688;29;20038;-66
2021/10/22 08:45:53;;;;;;;14.40;8.27;;;;;;;;;;4841027;29;20052;-62
2021/10/22 08:48:19;;;;;;;13.95;8.63;;;;;;;;;;4840606;29;20030;-59
2021/10/22 08:50:45;;;;;;;14.85;8.55;;;;;;;;;;4838621;29;20053;-64
2021/10/22 08:53:11;;;;;;;17.58;8.90;;;;;;;;;;4840504;29;20034;-63
2021/10/22 08:55:38;;;;;;;14.48;9.00;;;;;;;;;;4840907;29;20117;-68
2021/10/22 08:58:04;;;;;;;15.98;9.73;;;;;;;;;;4840999;29;20034;-67
2021/10/22 09:00:30;;;;;;;20.98;10.85;;;;;;;;;;4840582;29;20043;-65
2021/10/22 09:03:18;;;;;;;17.98;10.38;;;;;;;;;;4840689;29;20033;-64
2021/10/22 09:05:57;;;;;;;15.80;10.73;;;;;;;;;;4858582;29;20033;-67
2021/10/22 09:08:33;;;;;;;16.65;10.57;;;;;;;;;;4864519;29;20033;-64
2021/10/22 09:11:00;;;;;;;18.33;11.18;;;;;;;;;;4868406;29;20037;-64
2021/10/22 09:13:30;;;;;;;17.83;10.70;;;;;;;;;;4871723;29;20029;-64
2021/10/22 09:15:58;;;;;;;18.13;10.82;;;;;;;;;;4871170;29;20049;-65
2021/10/22 09:18:26;;;;;;;17.92;11.15;;;;;;;;;;4870423;29;20033;-67
2021/10/22 09:20:57;;;;;;;19.30;10.80;;;;;;;;;;4871450;29;20529;-64
2021/10/22 09:23:25;;;;;;;17.27;10.32;;;;;;;;;;4871500;29;20069;-64
2021/10/22 09:25:51;;;;;;;20.50;10.40;;;;;;;;;;4875810;29;20020;-64
2021/10/22 09:28:24;;;;;;;18.60;11.43;;;;;;;;;;4866433;29;20041;-66
2021/10/22 09:30:51;;;;;;;18.88;10.90;;;;;;;;;;4866134;29;20137;-70
2021/10/22 09:33:20;;;;;;;20.42;11.43;;;;;;;;;;4867812;29;20494;-67
2021/10/22 09:35:48;;;;;;;25.45;11.98;;;;;;;;;;4868390;29;20458;-63
2021/10/22 09:38:14;;;;;;;23.25;12.57;;;;;;;;;;4866772;29;20059;-62
2021/10/22 09:40:41;;;;;;;21.90;13.65;;;;;;;;;;4865382;29;20053;-69
2021/10/22 09:43:11;;;;;;;21.77;13.27;;;;;;;;;;4866975;29;20553;-66
2021/10/22 09:45:37;;;;;;;25.80;15.32;;;;;;;;;;4867807;29;20030;-65
2021/10/22 09:48:21;;;;;;;28.48;16.45;;;;;;;;;;4863094;29;20105;-68
2021/10/22 09:50:47;;;;;;;28.58;17.15;;;;;;;;;;4847532;29;20863;-64
2021/10/22 09:53:23;;;;;;;29.27;16.88;;;;;;;;;;4866276;29;20148;-67
2021/10/22 09:56:00;;;;;;;30.50;17.48;;;;;;;;;;4864890;29;20018;-70
2021/10/22 09:58:26;;;;;;;25.48;15.23;;;;;;;;;;4863916;29;20109;-63
2021/10/22 10:01:05;;;;;;;28.23;15.93;;;;;;;;;;4866534;29;20033;-66
2021/10/22 10:03:31;;;;;;;23.88;15.15;;;;;;;;;;4865146;29;20412;-69
2021/10/22 10:05:57;;;;;;;27.98;17.25;;;;;;;;;;4865452;29;20036;-68
2021/10/22 10:08:23;;;;;;;26.33;17.23;;;;;;;;;;4867184;29;20383;-65
2021/10/22 10:10:50;;;;;;;29.95;17.13;;;;;;;;;;4866322;29;20040;-68
2021/10/22 10:13:16;;;;;;;28.10;17.73;;;;;;;;;;4859762;29;20051;-65
2021/10/22 10:15:42;;;;;;;36.13;18.70;;;;;;;;;;4860379;29;20108;-70
2021/10/22 10:18:15;;;;;;;29.50;18.42;;;;;;;;;;4860366;29;20068;-68
2021/10/22 10:20:41;;;;;;;31.15;18.73;;;;;;;;;;4858307;29;20032;-64
2021/10/22 10:23:08;;;;;;;31.20;18.98;;;;;;;;;;4863066;29;20405;-64
2021/10/22 10:25:34;;;;;;;33.95;20.40;;;;;;;;;;4865978;29;20029;-65
2021/10/22 10:28:00;;;;;;;33.65;20.58;;;;;;;;;;4865882;29;20035;-67
2021/10/22 10:30:32;;;;;;;32.25;19.83;;;;;;;;;;4867218;29;20028;-65
2021/10/22 10:32:58;;;;;;;35.08;20.77;;;;;;;;;;4867243;29;20128;-64
2021/10/22 10:35:24;;;;;;;31.83;19.08;;;;;;;;;;4865830;29;20169;-67
2021/10/22 10:37:51;;;;;;;32.25;19.20;;;;;;;;;;4865306;29;20108;-66
2021/10/22 10:40:22;;;;;;;31.90;19.98;;;;;;;;;;4867093;29;20040;-65
2021/10/22 10:42:51;;;;;;;28.30;18.02;;;;;;;;;;4870328;29;20021;-63
2021/10/22 10:45:18;;;;;;;26.92;17.55;;;;;;;;;;4872458;29;20037;-64
2021/10/22 10:47:45;;;;;;;27.70;18.17;;;;;;;;;;4870896;29;20104;-65
2021/10/22 10:50:12;;;;;;;25.80;17.35;;;;;;;;;;4868316;29;20052;-66
2021/10/22 10:52:38;;;;;;;27.45;16.45;;;;;;;;;;4869731;29;20057;-65
2021/10/22 10:55:30;;;;;;;26.58;15.50;;;;;;;;;;4869711;29;20068;-63
2021/10/22 10:57:56;;;;;;;22.67;15.60;;;;;;;;;;4843136;29;20478;-68
2021/10/22 11:00:24;;;;;;;26.23;16.83;;;;;;;;;;4870350;29;20081;-64
2021/10/22 11:03:03;;;;;;;27.98;17.33;;;;;;;;;;4869291;29;20494;-64
2021/10/22 11:05:45;;;;;;;28.30;16.75;;;;;;;;;;4867424;29;20118;-63
2021/10/22 11:08:18;;;;;;;27.48;17.15;;;;;;;;;;4867737;29;20018;-66
2021/10/22 11:11:06;;;;;;;25.73;16.25;;;;;;;;;;4867825;29;20021;-64
2021/10/22 11:13:51;;;;;;;27.42;16.70;;;;;;;;;;4866310;29;20352;-63
2021/10/22 11:16:28;;;;;;;26.65;16.67;;;;;;;;;;4867002;29;20030;-65
2021/10/22 11:19:11;;;;;;;24.55;16.45;;;;;;;;;;4866229;29;20442;-65
2021/10/22 11:21:37;;;;;;;;;;;;;;;;;;4879861;29;20516;-63
2021/10/22 11:24:05;;;;;;;26.38;17.35;;;;;;;;;;4879211;29;19948;-67
2021/10/22 11:26:32;;;;;;;27.95;15.07;;;;;;;;;;4879283;29;20029;-65
2021/10/22 11:29:00;;;;;;;30.00;17.38;;;;;;;;;;4879156;29;20025;-65
2021/10/22 11:31:41;;;;;;;27.70;17.80;;;;;;;;;;4879018;29;20049;-68
2021/10/22 11:34:27;;;;;;;28.10;16.85;;;;;;;;;;4879360;29;20063;-66
2021/10/22 11:36:57;;;;;;;26.10;15.93;;;;;;;;;;4879024;29;20036;-72
2021/10/22 11:39:26;;;;;;;26.92;17.48;;;;;;;;;;4875606;29;20116;-66
2021/10/22 11:42:03;;;;;;;27.92;17.52;;;;;;;;;;4878676;29;20025;-68
2021/10/22 11:44:29;;;;;;;26.70;17.75;;;;;;;;;;4876794;29;20409;-71
2021/10/22 11:46:55;;;;;;;28.77;17.60;;;;;;;;;;4878306;29;20113;-69
2021/10/22 11:49:28;;;;;;;25.52;17.00;;;;;;;;;;4878263;29;20565;-66
2021/10/22 11:51:56;;;;;;;30.80;16.38;;;;;;;;;;4878531;29;20406;-64
2021/10/22 11:54:40;;;;;;;26.00;16.15;;;;;;;;;;4877293;29;20032;-66
2021/10/22 11:57:14;;;;;;;28.27;17.00;;;;;;;;;;4877458;29;20423;-66
2021/10/22 11:59:47;;;;;;;27.73;16.67;;;;;;;;;;4875004;29;20408;-62
2021/10/22 12:02:14;;;;;;;28.73;17.77;;;;;;;;;;4868375;29;20030;-65
2021/10/22 12:04:41;;;;;;;29.20;18.27;;;;;;;;;;4866834;29;20021;-66
2021/10/22 12:07:08;;;;;;;28.38;17.70;;;;;;;;;;4868748;29;20029;-67
2021/10/22 12:09:35;;;;;;;26.45;18.77;;;;;;;;;;4868317;29;20061;-64
2021/10/22 12:12:09;;;;;;;28.85;19.10;;;;;;;;;;4865264;29;20045;-65
2021/10/22 12:14:39;;;;;;;31.33;18.45;;;;;;;;;;4867438;29;20078;-64
2021/10/22 12:17:06;;;;;;;27.75;17.27;;;;;;;;;;4864671;29;20117;-63
2021/10/22 12:19:32;;;;;;;25.63;16.10;;;;;;;;;;4868253;29;20022;-62
2021/10/22 12:21:58;;;;;;;26.95;16.48;;;;;;;;;;4866576;29;20105;-64
2021/10/22 12:24:25;;;;;;;24.80;15.80;;;;;;;;;;4868077;29;20040;-65
2021/10/22 12:27:04;;;;;;;23.15;15.27;;;;;;;;;;4867686;29;20128;-63
2021/10/22 12:29:44;;;;;;;25.55;15.90;;;;;;;;;;4866342;29;20029;-63
2021/10/22 12:32:10;;;;;;;25.92;16.00;;;;;;;;;;4848877;29;20140;-68
2021/10/22 12:34:36;;;;;;;22.10;14.48;;;;;;;;;;4866395;29;20095;-64
2021/10/22 12:37:10;;;;;;;19.88;14.48;;;;;;;;;;4868087;29;20036;-65
2021/10/22 12:39:47;;;;;;;24.77;15.35;;;;;;;;;;4867976;29;20363;-68
2021/10/22 12:42:27;;;;;;;22.65;15.27;;;;;;;;;;4866301;29;20045;-69
2021/10/22 12:45:12;;;;;;;26.25;15.30;;;;;;;;;;4866752;29;20039;-69
2021/10/22 12:47:38;;;;;;;22.33;15.88;;;;;;;;;;4867430;29;20056;-67
2021/10/22 12:50:05;;;;;;;24.13;15.18;;;;;;;;;;4866718;29;20100;-71
2021/10/22 12:52:32;;;;;;;26.95;15.50;;;;;;;;;;4865331;29;20382;-63
2021/10/22 12:54:58;;;;;;;23.33;15.23;;;;;;;;;;4867943;29;20021;-64
2021/10/22 12:57:25;;;;;;;22.17;14.68;;;;;;;;;;4866890;29;20104;-64
2021/10/22 12:59:55;;;;;;;23.30;15.25;;;;;;;;;;4866982;29;20501;-64
2021/10/22 13:02:25;;;;;;;22.73;15.02;;;;;;;;;;4868981;29;20069;-63
2021/10/22 13:05:11;;;;;;;24.00;14.30;;;;;;;;;;4868301;29;20021;-63
2021/10/22 13:07:49;;;;;;;24.00;14.57;;;;;;;;;;4863760;29;20055;-65
2021/10/22 13:10:20;;;;;;;22.85;14.77;;;;;;;;;;4862680;29;20080;-64
2021/10/22 13:12:56;;;;;;;25.27;14.75;;;;;;;;;;4865095;29;20119;-65
2021/10/22 13:20:44;;;;;;;22.80;14.70;;;;;;;;;;4865689;29;20090;-65
2021/10/22 13:23:17;;;;;;;25.17;15.20;;;;;;;;;;4858341;29;20069;-70
2021/10/22 13:25:45;;;;;;;;;;;;;;;;;;4859259;29;20034;-70
2021/10/22 13:28:11;;;;;;;23.02;14.60;;;;;;;;;;4858660;29;19954;-64
2021/10/22 13:30:44;;;;;;;23.73;15.52;;;;;;;;;;4841951;29;20049;-75
2021/10/22 13:33:15;;;;;;;22.08;14.65;;;;;;;;;;4858657;29;20069;-67
2021/10/22 13:35:44;;;;;;;23.27;15.23;;;;;;;;;;4858853;29;20534;-64
2021/10/22 13:38:11;;;;;;;24.27;15.20;;;;;;;;;;4858762;29;20033;-63
2021/10/22 13:40:38;;;;;;;24.42;15.55;;;;;;;;;;4858666;29;20057;-64
2021/10/22 13:43:04;;;;;;;24.20;15.55;;;;;;;;;;4857378;29;20026;-65
2021/10/22 13:45:31;;;;;;;21.63;13.70;;;;;;;;;;4858808;29;20033;-69
2021/10/22 13:47:57;;;;;;;23.35;14.35;;;;;;;;;;4858168;29;20105;-68
2021/10/22 13:50:23;;;;;;;23.85;13.13;;;;;;;;;;4858156;29;20030;-66
2021/10/22 13:52:49;;;;;;;20.70;13.82;;;;;;;;;;4841458;29;20033;-63
2021/10/22 13:55:17;;;;;;;25.40;15.00;;;;;;;;;;4864742;29;20029;-69
2021/10/22 13:57:45;;;;;;;23.13;14.15;;;;;;;;;;4862965;29;20029;-62
2021/10/22 14:00:12;;;;;;;20.80;13.90;;;;;;;;;;4865825;29;20056;-64
2021/10/22 14:02:38;;;;;;;21.33;13.90;;;;;;;;;;4866839;29;20029;-64
2021/10/22 14:05:05;;;;;;;23.73;14.52;;;;;;;;;;4860610;29;20029;-63
2021/10/22 14:07:31;;;;;;;26.75;16.38;;;;;;;;;;4860446;29;20507;-62
2021/10/22 14:09:57;;;;;;;24.63;15.48;;;;;;;;;;4865994;29;20257;-64
2021/10/22 14:12:45;;;;;;;27.55;15.82;;;;;;;;;;4864881;29;20029;-63
2021/10/22 14:23:20;;;;;;;26.42;16.92;;;;;;;;;;4865011;29;20056;-69
2021/10/22 14:30:51;;;;;;;27.77;17.42;;;;;;;;;;4861223;29;20025;-71
2021/10/22 14:33:17;;;;;;;32.30;19.17;;;;;;;;;;4861209;29;20105;-63
2021/10/22 14:35:43;;;;;;;32.75;19.75;;;;;;;;;;4860596;29;20026;-62
2021/10/22 14:38:09;;;;;;;33.42;21.50;;;;;;;;;;4859643;29;20554;-69
2021/10/22 14:40:36;;;;;;;34.50;22.05;;;;;;;;;;4860718;29;20048;-68
2021/10/22 14:43:04;;;;;;;37.78;21.42;;;;;;;;;;4859729;29;20152;-66
2021/10/22 14:48:07;;;;;;;32.90;21.05;;;;;;;;;;4859451;29;20045;-62
2021/10/22 14:50:38;;;;;;;33.60;20.40;;;;;;;;;;4858039;29;20053;-61
2021/10/22 14:55:49;;;;;;;37.25;22.40;;;;;;;;;;4857007;29;20089;-67
2021/10/22 14:58:16;;;;;;;36.17;21.20;;;;;;;;;;4858586;29;20048;-66
2021/10/22 15:00:43;;;;;;;32.80;20.65;;;;;;;;;;4860072;29;20029;-65
2021/10/22 15:03:09;;;;;;;37.70;22.42;;;;;;;;;;4842773;29;20368;-66
2021/10/22 15:05:36;;;;;;;30.70;21.27;;;;;;;;;;4859387;29;20101;-65
2021/10/22 15:08:03;;;;;;;34.17;22.48;;;;;;;;;;4858823;29;20116;-63
2021/10/22 15:10:32;;;;;;;37.63;22.88;;;;;;;;;;4859761;29;20141;-66
2021/10/22 15:12:59;;;;;;;37.13;23.08;;;;;;;;;;4843651;29;20128;-69
2021/10/22 15:15:25;;;;;;;35.40;22.38;;;;;;;;;;4844041;29;20033;-70
2021/10/22 15:17:52;;;;;;;38.92;24.75;;;;;;;;;;4843413;29;20025;-64
2021/10/22 15:20:18;;;;;;;38.05;24.83;;;;;;;;;;4859889;29;20029;-61
2021/10/22 15:22:44;;;;;;;44.55;27.63;;;;;;;;;;4859350;29;20058;-62
2021/10/22 15:25:10;;;;;;;46.83;29.55;;;;;;;;;;4859962;29;20078;-61
2021/10/22 15:27:36;;;;;;;47.28;29.95;;;;;;;;;;4859352;29;20112;-66
2021/10/22 15:30:06;;;;;;;62.78;39.00;;;;;;;;;;4860899;29;20033;-69
2021/10/22 15:32:32;;;;;;;47.45;32.13;;;;;;;;;;4860255;29;20041;-63
2021/10/22 15:34:58;;;;;;;49.83;34.50;;;;;;;;;;4859593;29;20041;-60
2021/10/22 15:37:24;;;;;;;57.00;35.53;;;;;;;;;;4860554;29;20038;-66
2021/10/22 15:39:50;;;;;;;51.13;34.35;;;;;;;;;;4859532;29;20029;-61
2021/10/22 15:42:16;;;;;;;54.35;36.30;;;;;;;;;;4843170;29;20782;-64
2021/10/22 15:44:43;;;;;;;54.60;35.78;;;;;;;;;;4860007;29;20052;-63
2021/10/22 15:47:10;;;;;;;53.33;35.17;;;;;;;;;;4860034;29;20037;-66
2021/10/22 15:49:36;;;;;;;61.70;39.50;;;;;;;;;;4838353;29;20128;-65
2021/10/22 15:52:13;;;;;;;58.83;38.20;;;;;;;;;;4849437;29;20113;-63
2021/10/22 15:54:40;;;;;;;56.30;37.08;;;;;;;;;;4853635;29;20021;-62
2021/10/22 16:00:23;;;;;;;56.80;37.42;;;;;;;;;;4858810;29;20040;-62
2021/10/22 16:05:49;;;;;;;57.00;34.10;;;;;;;;;;4859204;29;20522;-66
2021/10/22 16:11:18;;;;;;;55.97;35.78;;;;;;;;;;4819692;29;20087;-63
2021/10/22 16:14:00;;;;;;;53.38;34.60;;;;;;;;;;4812552;29;20047;-63
2021/10/22 16:19:11;;;;;;;51.72;34.80;;;;;;;;;;4820619;29;19915;-65
2021/10/22 16:21:37;;;;;;;50.63;33.97;;;;;;;;;;4820376;29;20216;-61
2021/10/22 16:24:03;;;;;;;56.58;36.35;;;;;;;;;;4816923;29;20131;-70
2021/10/22 16:26:29;;;;;;;55.58;35.83;;;;;;;;;;4816115;29;20117;-66
2021/10/22 16:28:55;;;;;;;54.20;36.22;;;;;;;;;;4820210;29;20077;-67
2021/10/22 16:31:21;;;;;;;56.97;36.58;;;;;;;;;;4820374;29;20066;-64
2021/10/22 16:36:14;;;;;;;55.53;35.63;;;;;;;;;;4819701;29;20030;-63
2021/10/22 16:38:40;;;;;;;60.72;41.25;;;;;;;;;;4818461;29;20034;-66
2021/10/22 16:41:06;;;;;;;52.08;33.70;;;;;;;;;;4819634;29;20117;-68
2021/10/22 16:43:35;;;;;;;48.60;33.67;;;;;;;;;;4820167;29;20101;-68
2021/10/22 16:46:03;;;;;;;47.70;32.38;;;;;;;;;;4820248;29;20053;-63
2021/10/22 16:48:31;;;;;;;45.80;31.40;;;;;;;;;;4833163;29;20060;-69
2021/10/22 16:50:58;;;;;;;48.53;31.25;;;;;;;;;;4840532;29;20022;-69
2021/10/22 16:53:24;;;;;;;50.25;32.90;;;;;;;;;;4840606;29;20044;-63
2021/10/22 16:55:50;;;;;;;44.72;31.50;;;;;;;;;;4848568;29;20035;-64
2021/10/22 16:58:16;;;;;;;45.90;32.53;;;;;;;;;;4858339;29;20041;-67
2021/10/22 17:00:42;;;;;;;47.15;31.05;;;;;;;;;;4858815;29;20025;-64
2021/10/22 17:03:08;;;;;;;46.88;30.77;;;;;;;;;;4858859;29;20045;-63
2021/10/22 17:05:34;;;;;;;44.70;30.83;;;;;;;;;;4858249;29;20029;-62
2021/10/22 17:08:00;;;;;;;49.53;32.05;;;;;;;;;;4858734;29;20545;-67
2021/10/22 17:10:27;;;;;;;46.92;33.22;;;;;;;;;;4858276;29;20093;-64
2021/10/22 17:12:54;;;;;;;48.88;33.90;;;;;;;;;;4841906;29;20048;-64
2021/10/22 17:15:21;;;;;;;54.00;35.03;;;;;;;;;;4859018;29;20018;-64
2021/10/22 17:17:47;;;;;;;47.17;34.00;;;;;;;;;;4858040;29;20090;-69
2021/10/22 17:20:13;;;;;;;44.10;31.90;;;;;;;;;;4858725;29;20033;-69
2021/10/22 17:22:40;;;;;;;54.92;36.63;;;;;;;;;;4858039;29;20061;-63
2021/10/22 17:25:07;;;;;;;78.53;50.78;;;;;;;;;;4858498;29;20070;-64
2021/10/22 17:27:34;;;;;;;82.07;51.92;;;;;;;;;;4857699;29;20442;-64
2021/10/22 17:30:00;;;;;;;78.50;49.25;;;;;;;;;;4858157;29;20104;-61
2021/10/22 17:32:26;;;;;;;80.07;48.35;;;;;;;;;;4858545;29;20029;-62
2021/10/22 17:34:52;;;;;;;60.15;37.97;;;;;;;;;;4857964;29;20104;-66
2021/10/22 17:37:19;;;;;;;58.75;38.20;;;;;;;;;;4858209;29;20066;-64
2021/10/22 17:39:45;;;;;;;45.42;31.25;;;;;;;;;;4857921;29;20036;-70
2021/10/22 17:42:13;;;;;;;45.67;29.75;;;;;;;;;;4857834;29;20034;-67
2021/10/22 17:44:39;;;;;;;45.47;31.27;;;;;;;;;;4858078;29;20029;-71
2021/10/22 17:47:05;;;;;;;46.15;31.00;;;;;;;;;;4859830;29;20048;-64
2021/10/22 17:49:31;;;;;;;49.15;31.75;;;;;;;;;;4868534;29;20029;-63
2021/10/22 17:51:58;;;;;;;46.58;32.88;;;;;;;;;;4869211;29;20505;-64
2021/10/22 17:54:24;;;;;;;46.38;32.80;;;;;;;;;;4869288;29;20049;-64
2021/10/22 17:56:50;;;;;;;47.40;32.78;;;;;;;;;;4870706;29;20033;-64
2021/10/22 17:59:17;;;;;;;46.22;32.78;;;;;;;;;;4869292;29;20113;-63
2021/10/22 18:01:45;;;;;;;45.42;32.72;;;;;;;;;;4869560;29;20114;-64
2021/10/22 18:04:11;;;;;;;43.65;32.35;;;;;;;;;;4870228;29;20395;-63
2021/10/22 18:06:37;;;;;;;50.40;33.33;;;;;;;;;;4867141;29;20038;-64
2021/10/22 18:09:04;;;;;;;49.85;34.58;;;;;;;;;;4869576;29;20053;-63
2021/10/22 18:11:30;;;;;;;51.03;34.88;;;;;;;;;;4867497;29;20036;-70
2021/10/22 18:13:57;;;;;;;55.80;37.63;;;;;;;;;;4870197;29;20068;-63
2021/10/22 18:16:23;;;;;;;59.35;38.03;;;;;;;;;;4870237;29;20455;-68
2021/10/22 18:18:49;;;;;;;58.10;39.05;;;;;;;;;;4868174;29;20093;-70
2021/10/22 18:21:15;;;;;;;57.22;37.42;;;;;;;;;;4853350;29;20051;-65
2021/10/22 18:23:42;;;;;;;60.75;40.08;;;;;;;;;;4866418;29;20486;-61
2021/10/22 18:26:08;;;;;;;61.33;38.97;;;;;;;;;;4866486;29;20386;-59
2021/10/22 18:28:38;;;;;;;58.90;39.17;;;;;;;;;;4869342;29;20616;-62
2021/10/22 18:31:06;;;;;;;60.78;40.75;;;;;;;;;;4867598;29;20042;-60